Tiempo atmosférico en la estación meteorológica de Chipiona, Cádiz (10 m.)



Fecha
DESCASC
Temp. máxima en grados centígrados (hora)
DESCASC
Temp. mínima en grados centígrados (hora)
DESCASC
Temp. media en grados centígrados
DESCASC
Racha de viento máxima en m/sg (hora)
DESCASC
Velocidad máxima media en intervalos de 10 minutos(hora)
DESCASC
Precipitaciones diarias en mm
DESCASC
Precipitaciones de 00:00 a 06:00 en mm
DESCASC
Precipitaciones de 06:00 a 12:00 en mm
DESCASC
Precipitaciones de 12:00 a 18:00 en mm
DESCASC
Precipitaciones de 18:00 a 24:00 en mm
DESCASC
08-12-2019 15.3 (14:30) 6.6 (06:30) 11 4.17 (15:00) 3.33 (16:10) 0 0 0 0 0
07-12-2019 19.2 (15:30) 7.7 (03:40) 13.5 5 (10:10) 3.06 (16:40) 0 0 0 0 0
06-12-2019 19.9 (16:10) 9 (23:50) 14.4 7.78 (10:30) 4.72 (11:10) 0 0 0 0 0
05-12-2019 17.8 (15:40) 5.6 (00:00) 11.7 9.44 (14:30) 5 (15:00) 0 0 0 0 0
04-12-2019 15.2 (15:00) 7.8 (00:00) 11.5 8.33 (14:40) 5.83 (14:20) 0 0 0 0 0
03-12-2019 17.9 (15:40) 10.1 (00:00) 14 7.78 (10:00) 4.17 (02:30) 0 0 0 0 0
02-12-2019 16.4 (16:20) 11.1 (00:00) 13.8 11.67 (16:40) 6.67 (16:40) 3 0.6 0.4 2 0
01-12-2019 16.9 (13:00) 10.9 (00:00) 13.9 8.89 (21:10) 5.83 (15:00) 1 0.2 0 0.8 0
30-11-2019 18.1 (16:20) 10.8 (00:00) 14.5 6.11 (17:50) 4.17 (17:50) 0 0 0 0 0
29-11-2019 18.7 (13:30) 8.5 (00:00) 13.6 4.17 (15:20) 3.33 (15:10) 0.2 0.2 0 0 0
28-11-2019 18.2 (13:20) 10.2 (00:00) 14.2 3.33 (14:40) 2.5 (17:10) 0 0 0 0 0
27-11-2019 -- (--) -- (--) -- -- (--) -- (--) -- -- -- 0 0
26-11-2019 20.4 (14:30) 15.5 (00:00) 17.9 7.78 (23:59) 4.17 (22:50) 0.6 0 0 0 0.6
25-11-2019 19.6 (13:40) 11.2 (00:00) 15.4 8.61 (13:40) 4.72 (14:00) 0 0 0 0 0
24-11-2019 16.2 (16:40) 11.1 (00:00) 13.7 7.5 (07:10) 4.72 (07:10) 0 0 0 0 0
23-11-2019 16.5 (14:00) 13.8 (00:00) 15.2 11.67 (05:30) 7.5 (05:30) 0.4 0.4 0 0 0
22-11-2019 18.6 (14:20) 14.9 (00:00) 16.8 13.89 (18:30) 8.89 (18:40) 6 0.2 1.6 0.6 3.6
21-11-2019 17.5 (12:30) 13.3 (00:00) 15.4 7.78 (14:40) 4.17 (00:30) 4 1.2 1 1.8 0
20-11-2019 15.9 (13:00) 6.3 (00:00) 11.1 13.89 (13:30) 8.61 (13:20) 1.8 0 1 0.8 0
19-11-2019 16.1 (14:30) 5.3 (00:00) 10.7 3.61 (15:00) 2.5 (15:00) 0 0 0 0 0
18-11-2019 16.2 (00:50) 10.9 (00:00) 13.6 13.06 (04:40) 8.61 (02:10) 0 0 0 0 0
17-11-2019 17.5 (15:20) 7.7 (00:00) 12.6 10.83 (21:10) 6.67 (23:59) 2.6 0 0.4 2.2 0
16-11-2019 14.2 (17:20) 5.6 (00:00) 9.9 10 (00:40) 5.83 (01:10) 0 0 0 0 0
15-11-2019 14.6 (15:20) 11.2 (00:00) 12.9 12.78 (05:20) 7.5 (05:30) 0 0 0 0 0
14-11-2019 16.4 (10:00) 13.5 (00:00) 14.9 15.56 (13:10) 9.72 (13:10) 2 0 1.8 0.2 0
13-11-2019 19.3 (15:10) 14.6 (00:00) 16.9 10 (16:10) 6.39 (15:50) 0 0 0 0 0
12-11-2019 17.4 (16:20) 12.5 (00:00) 14.9 10.28 (14:40) 6.39 (14:40) 0 0 0 0 0
11-11-2019 17.6 (15:00) 13.3 (04:20) 15.5 10.83 (01:00) 6.67 (00:10) 0.4 0.4 0 0 0
10-11-2019 18 (16:20) 13.6 (00:00) 15.8 12.78 (14:00) 7.78 (14:00) 0 0 0 0 0
09-11-2019 16.9 (22:30) 8.6 (00:00) 12.8 9.17 (19:10) 6.11 (23:20) 0 0 0 0 0

Gráficas

Temp. máximas Temp. mínimas Temp. medias Precipitaciones Rachas de viento máximas Velocidades máximas media en intervalos de 10 minutos

Datos horarios

Fecha y hora oficial Temperatura (ºC) Velocidad del viento (km/h) Dirección del viento Racha (km/h) Dirección de racha Precipitación (mm) Presión (hPa) Tendencia (hPa) Humedad (%)
2019-12-08 23:00:00 11.2 3 Sur 5 Sur 0 -- -- 97
2019-12-08 22:00:00 11.5 3 Sur 5 Sudeste 0 -- -- 95
2019-12-08 21:00:00 12.3 4 Sur 5 Sudeste 0 -- -- 94
2019-12-08 20:00:00 13.4 0 Calma 13 Oeste 0 -- -- 94
2019-12-08 19:00:00 12.7 3 Sudoeste 6 Oeste 0 -- -- 92
2019-12-08 18:00:00 14.1 5 Oeste 13 Oeste 0 -- -- 88
2019-12-08 17:00:00 14.7 8 Oeste 14 Oeste 0 -- -- 86
2019-12-08 16:00:00 15.3 9 Oeste 13 Oeste 0 -- -- 85
2019-12-08 15:00:00 15.3 9 Oeste 15 Oeste 0 -- -- 85
2019-12-08 14:00:00 15 8 Oeste 12 Oeste 0 -- -- 86
2019-12-08 13:00:00 13.8 5 Oeste 10 Oeste 0 -- -- 93
2019-12-08 12:00:00 11.7 4 Sudeste 11 Este 0 -- -- 100
2019-12-08 11:00:00 9.8 6 Nordeste 12 Nordeste 0 -- -- 100
2019-12-08 10:00:00 8.7 3 Nordeste 6 Nordeste 0 -- -- 100
2019-12-08 09:00:00 6.8 3 Norte 6 Nordeste 0 -- -- 100
2019-12-08 08:00:00 6.7 0 Calma 8 Este 0 -- -- 100
2019-12-08 07:00:00 6.8 3 Norte 5 Norte 0 -- -- 99
2019-12-08 06:00:00 6.8 3 Sudeste 5 Sudeste 0 -- -- 99
2019-12-08 05:00:00 7.6 3 Este 5 Este 0 -- -- 100
2019-12-08 04:00:00 7.8 4 Este 5 Este 0 -- -- 99
2019-12-08 03:00:00 7.3 3 Sudeste 4 Sudeste 0 -- -- 98
2019-12-08 02:00:00 7.9 2 Nordeste -- -- 0 -- -- 97
2019-12-08 01:00:00 8.2 0 Calma 4 Sudeste 0 -- -- 96
2019-12-08 00:00:00 8.6 2 Este 2 Este 0 -- -- 96
2019-12-07 23:00:00 9.2 0 Calma 4 Este 0 -- -- 95
2019-12-07 22:00:00 10 2 Este 3 Sudeste 0 -- -- 94
2019-12-07 21:00:00 11.1 0 Calma 4 Noroeste 0 -- -- 92
2019-12-07 20:00:00 12.8 3 Noroeste 6 Noroeste 0 -- -- 93
2019-12-07 19:00:00 13.4 3 Noroeste 5 Noroeste 0 -- -- 90
2019-12-07 18:00:00 15.5 2 Oeste 13 Oeste 0 -- -- 86
2019-12-07 17:00:00 16.8 9 Oeste 14 Oeste 0 -- -- 82
2019-12-07 16:00:00 18.9 5 Oeste 10 Noroeste 0 -- -- 64
2019-12-07 15:00:00 19.1 4 Norte 13 Norte 0 -- -- 60
2019-12-07 14:00:00 17.7 7 Norte 14 Nordeste 0 -- -- 67
2019-12-07 13:00:00 16.7 5 Norte 12 Nordeste 0 -- -- 71
2019-12-07 12:00:00 14.7 8 Nordeste 14 Nordeste 0 -- -- 77
2019-12-07 11:00:00 12.2 8 Nordeste 18 Norte 0 -- -- 87
2019-12-07 10:00:00 10.3 7 Nordeste 14 Nordeste 0 -- -- 95
2019-12-07 09:00:00 8.8 7 Nordeste 13 Nordeste 0 -- -- 97
2019-12-07 08:00:00 8.6 4 Nordeste 9 Nordeste 0 -- -- 96
2019-12-07 07:00:00 8.8 5 Nordeste 9 Nordeste 0 -- -- 96
2019-12-07 06:00:00 9 6 Nordeste 10 Nordeste 0 -- -- 97
2019-12-07 05:00:00 8.8 5 Nordeste 9 Nordeste 0 -- -- 97
2019-12-07 04:00:00 8.3 4 Norte 5 Norte 0 -- -- 97
2019-12-07 03:00:00 8.3 3 Nordeste 6 Este 0 -- -- 94
2019-12-07 02:00:00 9.3 2 Norte 6 Norte 0 -- -- 94
2019-12-07 01:00:00 9.9 4 Norte 6 Norte 0 -- -- 95
2019-12-07 00:00:00 9.3 4 Norte 6 Norte 0 -- -- 93
2019-12-06 23:00:00 9.4 0 Calma 3 Nordeste 0 -- -- 90
2019-12-06 22:00:00 10.3 0 Calma 4 Nordeste 0 -- -- 87
2019-12-06 21:00:00 11.6 3 Este -- -- 0 -- -- 85
2019-12-06 20:00:00 13.2 3 Sudeste 10 Sudeste 0 -- -- 80
2019-12-06 19:00:00 15.2 0 Calma 7 Norte 0 -- -- 73
2019-12-06 18:00:00 17.7 4 Nordeste 13 Norte 0 -- -- 64
2019-12-06 17:00:00 19.5 5 Norte 17 Norte 0 -- -- 58
2019-12-06 16:00:00 19.7 7 Norte 18 Norte 0 -- -- 58
2019-12-06 15:00:00 19.4 8 Norte 18 Norte 0 -- -- 61
2019-12-06 14:00:00 18.5 8 Norte 18 Norte 0 -- -- 65
2019-12-06 13:00:00 17.3 8 Norte 17 Nordeste 0 -- -- 67
2019-12-06 12:00:00 15 10 Nordeste 26 Nordeste 0 -- -- 72
2019-12-06 11:00:00 13.4 15 Nordeste 28 Nordeste 0 -- -- 76
2019-12-06 10:00:00 11.5 13 Nordeste 23 Nordeste 0 -- -- 83
2019-12-06 09:00:00 10.2 11 Nordeste 24 Nordeste 0 -- -- 88
2019-12-06 08:00:00 9.7 11 Nordeste 24 Nordeste 0 -- -- 90
2019-12-06 07:00:00 9.9 15 Nordeste 26 Nordeste 0 -- -- 91
2019-12-06 06:00:00 9.8 9 Nordeste 23 Norte 0 -- -- 91
2019-12-06 05:00:00 10 8 Nordeste 20 Nordeste 0 -- -- 92
2019-12-06 04:00:00 10.5 12 Nordeste 23 Nordeste 0 -- -- 90
2019-12-06 03:00:00 11.2 11 Nordeste 19 Nordeste 0 -- -- 90
2019-12-06 02:00:00 11.6 8 Nordeste 15 Nordeste 0 -- -- 89
2019-12-06 01:00:00 12.1 7 Nordeste 14 Nordeste 0 -- -- 85
2019-12-06 00:00:00 12.5 7 Nordeste 15 Nordeste 0 -- -- 85
2019-12-05 23:00:00 12.5 4 Nordeste 11 Nordeste 0 -- -- 85
2019-12-05 22:00:00 13.1 7 Nordeste 15 Nordeste 0 -- -- 82
2019-12-05 21:00:00 13.5 8 Nordeste 15 Nordeste 0 -- -- 78
2019-12-05 20:00:00 14.4 9 Nordeste 17 Nordeste 0 -- -- 74
2019-12-05 19:00:00 14.8 6 Nordeste 12 Nordeste 0 -- -- 71
2019-12-05 18:00:00 16.3 5 Nordeste 18 Nordeste 0 -- -- 64
2019-12-05 17:00:00 17.6 11 Nordeste 22 Nordeste 0 -- -- 59
2019-12-05 16:00:00 17.5 15 Nordeste 29 Nordeste 0 -- -- 60
2019-12-05 15:00:00 17.2 18 Nordeste 34 Nordeste 0 -- -- 62
2019-12-05 14:00:00 16.4 11 Norte 27 Nordeste 0 -- -- 63
2019-12-05 13:00:00 15.5 14 Nordeste 28 Nordeste 0 -- -- 62
2019-12-05 12:00:00 13.8 12 Norte 22 Norte 0 -- -- 67
2019-12-05 11:00:00 11.4 7 Nordeste 19 Nordeste 0 -- -- 78
2019-12-05 10:00:00 9.3 8 Nordeste 19 Norte 0 -- -- 86
2019-12-05 09:00:00 7.5 5 Norte 13 Norte 0 -- -- 94
2019-12-05 08:00:00 7.5 4 Nordeste 15 Norte 0 -- -- 95
2019-12-05 07:00:00 7.5 5 Norte 15 Norte 0 -- -- 98
2019-12-05 06:00:00 5.6 0 Calma 3 Norte 0 -- -- 94
2019-12-05 05:00:00 6.2 0 Calma 5 Este 0 -- -- 93
2019-12-05 04:00:00 7 3 Este 5 Este 0 -- -- 91
2019-12-05 03:00:00 8.3 3 Este 6 Este 0 -- -- 88
2019-12-05 02:00:00 9.9 3 Este 7 Este 0 -- -- 84
2019-12-05 01:00:00 10.4 4 Este 8 Nordeste 0 -- -- 85
2019-12-05 00:00:00 10.3 3 Este 6 Este 0 -- -- 88
2019-12-04 23:00:00 11.1 2 Nordeste -- -- 0 -- -- 86
2019-12-04 22:00:00 11.6 3 Este 4 Este 0 -- -- 84
2019-12-04 21:00:00 11.8 0 Calma 4 Sur 0 -- -- 83
2019-12-04 20:00:00 11.8 0 Calma -- -- 0 -- -- 80
2019-12-04 19:00:00 11.6 3 Sur 6 Sur 0 -- -- 77
2019-12-04 18:00:00 12.8 3 Oeste 15 Noroeste 0 -- -- 67
2019-12-04 17:00:00 14.3 9 Oeste 20 Oeste 0 -- -- 62
2019-12-04 16:00:00 14.5 13 Oeste 26 Oeste 0 -- -- 67
2019-12-04 15:00:00 15.2 17 Oeste 30 Oeste 0 -- -- 63
2019-12-04 14:00:00 14.4 17 Oeste 26 Oeste 0 -- -- 69
2019-12-04 13:00:00 13.3 19 Oeste 28 Oeste 0 -- -- 74
2019-12-04 12:00:00 13.8 13 Oeste 24 Oeste 0 -- -- 71
2019-12-04 11:00:00 12.8 5 Noroeste 15 Oeste 0 -- -- 79
2019-12-04 10:00:00 12.6 11 Oeste 23 Noroeste 0 -- -- 84
2019-12-04 09:00:00 11.6 16 Noroeste 30 Oeste 0 -- -- 87
2019-12-04 08:00:00 11.7 15 Oeste 23 Oeste 0 -- -- 92
2019-12-04 07:00:00 11 15 Oeste 22 Oeste 0 -- -- 99
2019-12-04 06:00:00 8.1 2 Sudeste 4 Nordeste 0 -- -- 97
2019-12-04 05:00:00 8.8 3 Oeste 4 Oeste 0 -- -- 95
2019-12-04 04:00:00 10.3 2 Noroeste 5 Oeste 0 -- -- 96
2019-12-04 03:00:00 11 4 Sudoeste 7 Sudoeste 0 -- -- 92
2019-12-04 02:00:00 12.3 0 Calma 8 Nordeste 0 -- -- 89
2019-12-04 01:00:00 13.7 3 Nordeste 11 Norte 0 -- -- 91
2019-12-04 00:00:00 14.3 7 Oeste 20 Oeste 0 -- -- 89
2019-12-03 23:00:00 14.4 11 Oeste 19 Oeste 0 -- -- 89
2019-12-03 22:00:00 14.7 12 Oeste 18 Oeste 0 -- -- 87
2019-12-03 21:00:00 14.5 9 Oeste 18 Oeste 0 -- -- 88
2019-12-03 20:00:00 14.4 10 Oeste 18 Oeste 0 -- -- 85
2019-12-03 19:00:00 14.5 9 Oeste 17 Oeste 0 -- -- 84
2019-12-03 18:00:00 15.2 8 Oeste 21 Oeste 0 -- -- 83
2019-12-03 17:00:00 17.9 6 Norte 16 Nordeste 0 -- -- 65
2019-12-03 16:00:00 17.9 8 Norte 24 Norte 0 -- -- 64
2019-12-03 15:00:00 17.6 9 Norte 24 Norte 0 -- -- 67
2019-12-03 14:00:00 16.7 11 Norte 26 Norte 0 -- -- 67
2019-12-03 13:00:00 15.6 12 Norte 27 Nordeste 0 -- -- 69
2019-12-03 12:00:00 14.4 11 Norte 26 Nordeste 0 -- -- 74
2019-12-03 11:00:00 13.5 12 Nordeste 28 Nordeste 0 -- -- 79
2019-12-03 10:00:00 11.8 14 Nordeste 28 Nordeste 0 -- -- 85
2019-12-03 09:00:00 10.1 7 Norte 21 Nordeste 0 -- -- 93
2019-12-03 08:00:00 10.2 8 Nordeste 15 Nordeste 0 -- -- 93
2019-12-03 07:00:00 10.2 8 Nordeste 18 Nordeste 0 -- -- 94
2019-12-03 06:00:00 11.3 6 Nordeste 24 Nordeste 0 -- -- 91
2019-12-03 05:00:00 11.6 13 Nordeste 24 Nordeste 0 -- -- 91
2019-12-03 04:00:00 11.5 9 Nordeste 22 Nordeste 0 -- -- 93
2019-12-03 03:00:00 11.9 10 Nordeste 27 Nordeste 0 -- -- 91
2019-12-03 02:00:00 12.2 10 Nordeste 21 Norte 0 -- -- 94
2019-12-03 01:00:00 12.4 12 Nordeste 19 Nordeste 0 -- -- 93
2019-12-03 00:00:00 12 6 Norte 13 Norte 0 -- -- 95
2019-12-02 23:00:00 11.1 4 Nordeste 7 Nordeste 0 -- -- 93
2019-12-02 22:00:00 11.7 4 Nordeste 11 Nordeste 0 -- -- 93
2019-12-02 21:00:00 12 5 Nordeste 9 Nordeste 0 -- -- 93
2019-12-02 20:00:00 12.2 5 Nordeste 8 Nordeste 0 -- -- 92
2019-12-02 19:00:00 12.8 0 Calma 15 Nordeste 0 -- -- 90
2019-12-02 18:00:00 13.7 9 Nordeste 22 Este 0 -- -- 87
2019-12-02 17:00:00 13.3 9 Nordeste 42 Este 2 -- -- 90
2019-12-02 16:00:00 16 13 Nordeste 27 Nordeste 0 -- -- 72
2019-12-02 15:00:00 15.4 13 Este 22 Este 0 -- -- 79
2019-12-02 14:00:00 14.7 8 Nordeste 22 Nordeste 0 -- -- 86
2019-12-02 13:00:00 13.9 12 Nordeste 23 Nordeste 0 -- -- 95
2019-12-02 12:00:00 13.1 10 Nordeste 19 Nordeste 0.4 -- -- 98
2019-12-02 11:00:00 12.9 9 Nordeste 19 Nordeste 0 -- -- 95
2019-12-02 10:00:00 12.1 8 Nordeste 15 Norte 0 -- -- 99
2019-12-02 09:00:00 11.8 6 Nordeste 12 Norte 0 -- -- 99
2019-12-02 08:00:00 11.7 5 Nordeste 13 Norte 0 -- -- 98
2019-12-02 07:00:00 12 4 Norte 8 Nordeste 0 -- -- 98
2019-12-02 06:00:00 12.2 4 Norte 9 Norte 0 -- -- 96
2019-12-02 05:00:00 12.4 3 Norte 5 Norte 0 -- -- 97
2019-12-02 04:00:00 12.6 3 Oeste 14 Noroeste 0.2 -- -- 94
2019-12-02 03:00:00 12.9 9 Oeste 19 Oeste 0.4 -- -- 93
2019-12-02 02:00:00 13.5 12 Noroeste 26 Oeste 0 -- -- 88
2019-12-02 01:00:00 14.2 15 Oeste 26 Oeste 0 -- -- 82
2019-12-02 00:00:00 14.5 14 Oeste 31 Oeste 0 -- -- 82
2019-12-01 23:00:00 14.8 18 Oeste 29 Oeste 0 -- -- 84
2019-12-01 22:00:00 14.7 15 Oeste 32 Oeste 0 -- -- 81
2019-12-01 21:00:00 14.9 19 Oeste 30 Oeste 0 -- -- 84
2019-12-01 20:00:00 15.1 19 Oeste 30 Oeste 0 -- -- 85
2019-12-01 19:00:00 14.6 15 Sudoeste 27 Sudoeste 0 -- -- 89
2019-12-01 18:00:00 15 19 Sudoeste 30 Sudoeste 0 -- -- 88
2019-12-01 17:00:00 15.7 14 Oeste 27 Sudoeste 0 -- -- 89
2019-12-01 16:00:00 15.4 13 Sudoeste 28 Oeste 0.6 -- -- 94
2019-12-01 15:00:00 15.7 21 Sudoeste 30 Sudoeste 0.2 -- -- 85
2019-12-01 14:00:00 15.9 18 Oeste 28 Sudoeste 0 -- -- 89
2019-12-01 13:00:00 16.9 14 Oeste 20 Sudoeste 0 -- -- 83
2019-12-01 12:00:00 16.7 13 Sudoeste 22 Oeste 0 -- -- 81
2019-12-01 11:00:00 16.4 11 Oeste 16 Sudoeste 0 -- -- 83
2019-12-01 10:00:00 15.4 6 Oeste 11 Oeste 0 -- -- 86
2019-12-01 09:00:00 13.8 7 Oeste 18 Oeste 0 -- -- 95
2019-12-01 08:00:00 11.1 2 Sudeste 4 Sudeste 0 -- -- 98
2019-12-01 07:00:00 11.6 3 Sudeste 6 Oeste 0 -- -- 97
2019-12-01 06:00:00 12.3 4 Oeste 6 Oeste 0 -- -- 97
2019-12-01 05:00:00 13.8 0 Calma 5 Oeste 0 -- -- 96
2019-12-01 04:00:00 15 5 Oeste 14 Oeste 0 -- -- 96
2019-12-01 03:00:00 15.3 6 Noroeste 14 Oeste 0 -- -- 99
2019-12-01 02:00:00 15.6 9 Oeste 18 Oeste 0 -- -- 99
2019-12-01 01:00:00 15.7 8 Oeste 28 Oeste 0.2 -- -- 98
2019-12-01 00:00:00 16.8 12 Sudoeste 18 Sudoeste 0 -- -- 94
2019-11-30 23:00:00 16.6 10 Sudoeste 21 Sudoeste 0 -- -- 92
2019-11-30 22:00:00 16 7 Sudoeste 15 Sudoeste 0 -- -- 93
2019-11-30 21:00:00 16.4 8 Sudoeste 19 Sur 0 -- -- 92
2019-11-30 20:00:00 16.4 9 Sudoeste 15 Sudoeste 0 -- -- 90
2019-11-30 19:00:00 16.1 11 Sudoeste 17 Sudoeste 0 -- -- 93
2019-11-30 18:00:00 15.9 14 Sudoeste 22 Sudoeste 0 -- -- 91
2019-11-30 17:00:00 17.3 9 Sudoeste 15 Sudoeste 0 -- -- 79
2019-11-30 16:00:00 17.7 9 Oeste 14 Sudoeste 0 -- -- 75
2019-11-30 15:00:00 17.3 9 Oeste 14 Oeste 0 -- -- 81
2019-11-30 14:00:00 16.7 10 Oeste 15 Oeste 0 -- -- 82
2019-11-30 13:00:00 16.6 6 Oeste 12 Oeste 0 -- -- 84
2019-11-30 12:00:00 15.6 6 Noroeste 12 Noroeste 0 -- -- 88
2019-11-30 11:00:00 13.9 4 Noroeste 9 Norte 0 -- -- 95
2019-11-30 10:00:00 12.3 4 Norte 9 Norte 0 -- -- 100
2019-11-30 09:00:00 10.8 0 Calma 9 Norte 0 -- -- 100
2019-11-30 08:00:00 11.5 5 Norte 13 Norte 0 -- -- 99
2019-11-30 07:00:00 11.6 7 Nordeste 14 Norte 0 -- -- 99
2019-11-30 06:00:00 11.5 5 Nordeste 9 Nordeste 0 -- -- 98
2019-11-30 05:00:00 11.4 4 Nordeste 7 Nordeste 0 -- -- 97
2019-11-30 04:00:00 12 4 Nordeste 12 Norte 0 -- -- 96
2019-11-30 03:00:00 12.6 3 Norte 9 Norte 0 -- -- 96
2019-11-30 02:00:00 12.8 3 Norte 10 Norte 0 -- -- 96
2019-11-30 01:00:00 14 4 Norte 10 Noroeste 0 -- -- 98
2019-11-30 00:00:00 14.3 4 Noroeste 9 Noroeste 0 -- -- 98
2019-11-29 23:00:00 14.3 2 Noroeste 9 Noroeste 0 -- -- 98
2019-11-29 22:00:00 13.9 3 Noroeste 6 Noroeste 0 -- -- 99
2019-11-29 21:00:00 13.4 3 Oeste 6 Noroeste 0 -- -- 97
2019-11-29 20:00:00 13.9 0 Calma 6 Noroeste 0 -- -- 95
2019-11-29 19:00:00 14.7 4 Noroeste 10 Noroeste 0 -- -- 93
2019-11-29 18:00:00 15.8 7 Noroeste 14 Noroeste 0 -- -- 91
2019-11-29 17:00:00 16.6 10 Noroeste 15 Noroeste 0 -- -- 88
2019-11-29 16:00:00 16.9 9 Noroeste 15 Oeste 0 -- -- 88
2019-11-29 15:00:00 17.7 9 Oeste 14 Oeste 0 -- -- 85
2019-11-29 14:00:00 18 6 Oeste 13 Norte 0 -- -- 84
2019-11-29 13:00:00 17.8 6 Norte 13 Noroeste 0 -- -- 83
2019-11-29 12:00:00 15.3 4 Norte 8 Noroeste 0 -- -- 97
2019-11-29 11:00:00 12.9 3 Norte 6 Norte 0 -- -- 100
2019-11-29 10:00:00 10.4 3 Norte 9 Norte 0 -- -- 100
2019-11-29 09:00:00 9.8 0 Calma 5 Nordeste 0 -- -- 100
2019-11-29 08:00:00 9.9 3 Norte 6 Norte 0 -- -- 100
2019-11-29 07:00:00 8.8 0 Calma 4 Nordeste 0 -- -- 100
2019-11-29 06:00:00 9 0 Calma 3 Norte 0 -- -- 100
2019-11-29 05:00:00 9.7 0 Calma 2 Nordeste 0 -- -- 100
2019-11-29 04:00:00 10.9 0 Calma 4 Nordeste 0 -- -- 100
2019-11-29 03:00:00 10.8 3 Nordeste 5 Nordeste 0.2 -- -- 100
2019-11-29 02:00:00 10.1 3 Nordeste 4 Nordeste 0 -- -- 100
2019-11-29 01:00:00 10.1 0 Calma 3 Este 0 -- -- 99
2019-11-29 00:00:00 10.5 0 Calma 2 Sudeste 0 -- -- 99
2019-11-28 23:00:00 11.1 0 Calma 4 Sudeste 0 -- -- 98
2019-11-28 22:00:00 11.8 0 Calma 3 Este 0 -- -- 97
2019-11-28 21:00:00 12.6 2 Este 4 Nordeste 0 -- -- 97
2019-11-28 20:00:00 13.6 2 Este 5 Nordeste 0 -- -- 97
2019-11-28 19:00:00 14.6 2 Sudoeste 7 Sudoeste 0 -- -- 95
2019-11-28 18:00:00 16.1 5 Sudoeste 12 Oeste 0 -- -- 89
2019-11-28 17:00:00 17.6 7 Oeste 10 Oeste 0 -- -- 85
2019-11-28 16:00:00 17.7 8 Oeste 11 Oeste 0 -- -- 87
2019-11-28 15:00:00 17.8 8 Oeste 12 Oeste 0 -- -- 88
2019-11-28 14:00:00 18 7 Oeste 10 Oeste 0 -- -- 87
2019-11-28 13:00:00 18 6 Oeste 8 Oeste 0 -- -- 87
2019-11-28 12:00:00 17.2 5 Oeste 8 Oeste 0 -- -- 88
2019-11-28 11:00:00 16 0 Calma 4 Sudeste 0 -- -- 100
2019-11-28 10:00:00 13.2 2 Este 5 Este 0 -- -- 100
2019-11-28 09:00:00 10.6 0 Calma 6 Este 0 -- -- 100
2019-11-28 08:00:00 10.3 3 Este 6 Este 0 -- -- 100
2019-11-28 07:00:00 10.8 3 Este 8 Este 0 -- -- 100
2019-11-28 06:00:00 11.5 3 Este 5 Este 0 -- -- 100
2019-11-28 05:00:00 12.3 3 Sudeste 4 Sudeste 0 -- -- 100
2019-11-28 04:00:00 12.5 2 Sur 4 Sur 0 -- -- 100
2019-11-28 03:00:00 12.1 2 Sur 5 Sudeste 0 -- -- 100
2019-11-28 02:00:00 12 4 Sudeste 5 Sur 0 -- -- 100
2019-11-28 01:00:00 12.5 5 Sur 6 Sudeste 0 -- -- 100
2019-11-28 00:00:00 12.5 2 Sur 4 Sur 0 -- -- 99
2019-11-27 23:00:00 12.8 3 Sudeste 4 Sudeste 0 -- -- 98
2019-11-27 22:00:00 13.6 2 Sur 5 Sudeste 0 -- -- 98
2019-11-27 21:00:00 13.8 2 Sudeste 6 Sudoeste 0 -- -- 97
2019-11-27 20:00:00 14.7 3 Sur 6 Sudoeste 0 -- -- 96
2019-11-27 19:00:00 15.5 3 Sudoeste 9 Sudoeste 0 -- -- 93
2019-11-27 18:00:00 16.6 5 Sudoeste 12 Sur 0 -- -- 88
2019-11-27 17:00:00 17 8 Oeste 13 Oeste 0 -- -- 88
2019-11-27 16:00:00 17.6 9 Oeste 13 Oeste 0 -- -- 86
2019-11-27 15:00:00 18.3 9 Oeste 12 Oeste 0 -- -- 81
2019-11-27 14:00:00 18.4 6 Oeste 12 Noroeste 0 -- -- 81
2019-11-27 06:00:00 -- -- -- -- -- -- -- -- --
2019-11-27 05:00:00 -- -- -- -- -- -- -- -- --
2019-11-27 04:00:00 -- -- -- -- -- -- -- -- --
2019-11-27 03:00:00 -- -- -- -- -- -- -- -- --
2019-11-27 02:00:00 -- -- -- -- -- -- -- -- --
2019-11-27 01:00:00 -- -- -- -- -- -- -- -- --
2019-11-27 00:00:00 -- -- -- -- -- -- -- -- --
2019-11-26 23:00:00 -- -- -- -- -- -- -- -- --
2019-11-26 22:00:00 -- -- -- -- -- -- -- -- --
2019-11-26 21:00:00 -- -- -- -- -- -- -- -- --
2019-11-26 20:00:00 -- -- -- -- -- -- -- -- --
2019-11-26 19:00:00 -- -- -- -- -- -- -- -- --
2019-11-26 18:00:00 -- -- -- -- -- -- -- -- --
2019-11-26 17:00:00 19 13 Sudoeste 23 Sudoeste 0 -- -- 94
2019-11-26 16:00:00 19.2 12 Sudoeste 21 Sudoeste 0 -- -- 89
2019-11-26 15:00:00 19.3 14 Sur 23 Sur 0 -- -- 90
2019-11-26 14:00:00 19.4 8 Sudoeste 21 Sudoeste 0 -- -- 94
2019-11-26 13:00:00 18.4 8 Sur 14 Sudoeste 0 -- -- 100
2019-11-26 12:00:00 17.4 9 Sur 15 Sudoeste 0 -- -- 100
2019-11-26 11:00:00 17.6 7 Sudoeste 11 Sudoeste 0 -- -- 100
2019-11-26 10:00:00 16.9 3 Sur 9 Sur 0 -- -- 100
2019-11-26 09:00:00 16 4 Sudeste 8 Sudeste 0 -- -- 100
2019-11-26 08:00:00 15.7 5 Sudeste 10 Sudeste 0 -- -- 100
2019-11-26 07:00:00 15.9 6 Sudeste 9 Sudeste 0 -- -- 100
2019-11-26 06:00:00 16 3 Nordeste 5 Nordeste 0 -- -- 100
2019-11-26 05:00:00 15.8 0 Calma 3 Sudeste 0 -- -- 100
2019-11-26 04:00:00 15.5 0 Calma 3 Este 0 -- -- 100
2019-11-26 03:00:00 15.5 0 Calma 3 Norte 0 -- -- 100
2019-11-26 02:00:00 15.6 3 Noroeste 5 Oeste 0 -- -- 100
2019-11-26 01:00:00 15.9 4 Noroeste 10 Oeste 0 -- -- 100
2019-11-26 00:00:00 16.2 5 Oeste 10 Oeste 0 -- -- 100
2019-11-25 23:00:00 16.3 5 Sudoeste 13 Sudoeste 0 -- -- 100
2019-11-25 22:00:00 16.8 4 Sudoeste 17 Sudoeste 0 -- -- 99
2019-11-25 21:00:00 17.3 8 Sudoeste 18 Sur 0 -- -- 99
2019-11-25 20:00:00 17.4 10 Sudoeste 22 Sudoeste 0 -- -- 98
2019-11-25 19:00:00 17.5 12 Sudoeste 23 Sudoeste 0 -- -- 97
2019-11-25 18:00:00 17.7 10 Sudoeste 22 Sudoeste 0 -- -- 96
2019-11-25 17:00:00 18.1 12 Sudoeste 25 Sur 0 -- -- 93
2019-11-25 16:00:00 18.5 13 Sudoeste 30 Sudoeste 0 -- -- 90
2019-11-25 15:00:00 19.3 15 Sudoeste 30 Sudoeste 0 -- -- 87
2019-11-25 14:00:00 19.5 17 Sudoeste 31 Sudoeste 0 -- -- 86
2019-11-25 13:00:00 19.3 16 Sur 28 Sur 0 -- -- 87
2019-11-25 12:00:00 19.1 14 Sur 28 Sudoeste 0 -- -- 87
2019-11-25 11:00:00 18.3 12 Sudoeste 26 Sur 0 -- -- 89
2019-11-25 10:00:00 16.9 11 Sudoeste 22 Sur 0 -- -- 93
2019-11-25 09:00:00 15.9 9 Sudoeste 17 Sur 0 -- -- 98
2019-11-25 08:00:00 15 6 Sur 11 Sur 0 -- -- 98
2019-11-25 07:00:00 14.4 5 Sur 10 Sur 0 -- -- 98
2019-11-25 06:00:00 14.1 4 Sudeste 11 Sudeste 0 -- -- 97
2019-11-25 05:00:00 13.9 8 Sudeste 11 Sur 0 -- -- 98
2019-11-25 04:00:00 13.2 5 Sur 11 Sudeste 0 -- -- 98
2019-11-25 03:00:00 13.2 5 Sur 8 Sur 0 -- -- 99
2019-11-25 02:00:00 12.2 4 Sudeste 6 Sur 0 -- -- 98
2019-11-25 01:00:00 11.9 4 Sudeste 6 Sudeste 0 -- -- 98
2019-11-25 00:00:00 11.2 4 Sudeste 5 Sudeste 0 -- -- 96
2019-11-24 23:00:00 11.4 2 Sudeste 5 Sudeste 0 -- -- 95
2019-11-24 22:00:00 12.1 3 Este 10 Sudeste 0 -- -- 95
2019-11-24 21:00:00 12.2 5 Sudeste 7 Sudeste 0 -- -- 93
2019-11-24 20:00:00 12.8 5 Sudeste 6 Sudeste 0 -- -- 90
2019-11-24 19:00:00 13.7 3 Sudeste 6 Sudoeste 0 -- -- 87
2019-11-24 18:00:00 15.1 4 Sudoeste 14 Sudoeste 0 -- -- 79
2019-11-24 17:00:00 16 8 Sudoeste 18 Sudoeste 0 -- -- 76
2019-11-24 16:00:00 16.1 12 Oeste 19 Oeste 0 -- -- 72
2019-11-24 15:00:00 15.8 12 Oeste 16 Oeste 0 -- -- 76
2019-11-24 14:00:00 15.3 10 Oeste 16 Sudoeste 0 -- -- 79
2019-11-24 13:00:00 15 9 Oeste 14 Oeste 0 -- -- 81
2019-11-24 12:00:00 14.7 9 Oeste 13 Oeste 0 -- -- 80
2019-11-24 11:00:00 14.3 7 Oeste 11 Oeste 0 -- -- 81
2019-11-24 10:00:00 13.5 7 Noroeste 20 Noroeste 0 -- -- 84
2019-11-24 09:00:00 12.5 11 Noroeste 19 Noroeste 0 -- -- 87
2019-11-24 08:00:00 12.3 14 Noroeste 27 Oeste 0 -- -- 87
2019-11-24 07:00:00 12.4 14 Oeste 25 Oeste 0 -- -- 88
2019-11-24 06:00:00 12.4 11 Oeste 19 Oeste 0 -- -- 88
2019-11-24 05:00:00 12.4 9 Noroeste 17 Oeste 0 -- -- 85
2019-11-24 04:00:00 12.3 8 Noroeste 14 Oeste 0 -- -- 85
2019-11-24 03:00:00 12.5 7 Noroeste 15 Noroeste 0 -- -- 84
2019-11-24 02:00:00 13 8 Noroeste 18 Oeste 0 -- -- 83
2019-11-24 01:00:00 13.3 11 Noroeste 21 Noroeste 0 -- -- 85
2019-11-24 00:00:00 13.8 14 Oeste 27 Oeste 0 -- -- 84
2019-11-23 23:00:00 14.2 15 Oeste 23 Oeste 0 -- -- 81
2019-11-23 22:00:00 14.1 8 Oeste 21 Oeste 0 -- -- 84
2019-11-23 21:00:00 14.4 11 Oeste 22 Oeste 0 -- -- 89
2019-11-23 20:00:00 14.6 14 Oeste 25 Oeste 0 -- -- 90
2019-11-23 19:00:00 14.7 18 Oeste 26 Oeste 0 -- -- 88
2019-11-23 18:00:00 15.1 15 Oeste 31 Sudoeste 0 -- -- 86
2019-11-23 17:00:00 16.3 17 Oeste 25 Oeste 0 -- -- 80
2019-11-23 16:00:00 16.4 18 Oeste 27 Oeste 0 -- -- 78
2019-11-23 15:00:00 16.4 19 Oeste 29 Oeste 0 -- -- 79
2019-11-23 14:00:00 16.5 17 Oeste 30 Oeste 0 -- -- 77
2019-11-23 13:00:00 16.3 19 Oeste 31 Oeste 0 -- -- 78
2019-11-23 12:00:00 15.8 22 Oeste 33 Oeste 0 -- -- 78
2019-11-23 11:00:00 15.6 21 Oeste 35 Oeste 0 -- -- 78
2019-11-23 10:00:00 15.2 18 Oeste 31 Oeste 0 -- -- 82
2019-11-23 09:00:00 14.3 20 Oeste 33 Oeste 0 -- -- 87
2019-11-23 08:00:00 14.2 22 Oeste 33 Oeste 0 -- -- 86
2019-11-23 07:00:00 14.2 22 Oeste 37 Oeste 0 -- -- 88
2019-11-23 06:00:00 13.9 24 Oeste 42 Sudoeste 0.4 -- -- 90
2019-11-23 05:00:00 15.5 19 Oeste 32 Oeste 0 -- -- 87
2019-11-23 04:00:00 15.4 21 Sudoeste 35 Sudoeste 0 -- -- 86
2019-11-23 03:00:00 15.2 22 Oeste 34 Oeste 0 -- -- 88
2019-11-23 02:00:00 15.4 20 Oeste 35 Oeste 0 -- -- 91
2019-11-23 01:00:00 15.4 20 Sudoeste 32 Sudoeste 0 -- -- 91
2019-11-23 00:00:00 15.8 25 Oeste 40 Oeste 0 -- -- 89
2019-11-22 23:00:00 15.9 15 Sudoeste 33 Sudoeste 0 -- -- 92
2019-11-22 22:00:00 15.5 18 Sudoeste 30 Sudoeste 0 -- -- 90
2019-11-22 21:00:00 15.8 22 Sudoeste 35 Oeste 0 -- -- 97
2019-11-22 20:00:00 16 19 Oeste 43 Oeste 1 -- -- 99
2019-11-22 19:00:00 17.1 27 Oeste 50 Sudoeste 2.6 -- -- 98
2019-11-22 18:00:00 17.8 27 Sudoeste 48 Sudoeste 0 -- -- 96
2019-11-22 17:00:00 18.1 23 Sudoeste 43 Sudoeste 0 -- -- 94
2019-11-22 16:00:00 17.9 23 Sudoeste 45 Sudoeste 0.6 -- -- 96
2019-11-22 15:00:00 18.4 24 Sur 44 Sudoeste 0 -- -- 94
2019-11-22 14:00:00 18 23 Sudoeste 49 Sudoeste 0 -- -- 98
2019-11-22 13:00:00 17.7 23 Sur 39 Sur 0 -- -- 98
2019-11-22 12:00:00 17.3 16 Sur 32 Sudoeste 1.2 -- -- 99
2019-11-22 11:00:00 17 12 Sur 25 Sur 0.2 -- -- 100
2019-11-22 10:00:00 16.8 12 Sur 21 Sudoeste 0 -- -- 100
2019-11-22 09:00:00 16.3 8 Sur 18 Sur 0 -- -- 100
2019-11-22 08:00:00 16.2 11 Sudoeste 22 Sur 0.2 -- -- 100
2019-11-22 07:00:00 16.1 8 Sudoeste 19 Sudoeste 0 -- -- 100
2019-11-22 06:00:00 16.1 9 Sudoeste 19 Sur 0.2 -- -- 100
2019-11-22 05:00:00 15.9 8 Sur 15 Sur 0 -- -- 100
2019-11-22 04:00:00 15.6 5 Sur 10 Sur 0 -- -- 100
2019-11-22 03:00:00 15.3 4 Sur 7 Sur 0 -- -- 100
2019-11-22 02:00:00 15.1 6 Sudeste 10 Sudeste 0 -- -- 100
2019-11-22 01:00:00 15 5 Sur 10 Sudoeste 0 -- -- 99
2019-11-22 00:00:00 15.3 6 Sur 12 Sudoeste 0 -- -- 99
2019-11-21 23:00:00 15.2 5 Sur 13 Sur 0 -- -- 98
2019-11-21 22:00:00 15.4 8 Sur 12 Sur 0 -- -- 97
2019-11-21 21:00:00 15.6 8 Sur 17 Sudoeste 0 -- -- 96
2019-11-21 20:00:00 15.8 8 Sur 14 Sur 0 -- -- 96
2019-11-21 19:00:00 15.7 8 Sur 14 Sur 0 -- -- 96
2019-11-21 18:00:00 16 8 Sur 14 Sur 0 -- -- 95
2019-11-21 17:00:00 16.4 8 Sur 14 Sur 0 -- -- 93
2019-11-21 16:00:00 16 6 Sudoeste 15 Sudoeste 0 -- -- 95
2019-11-21 15:00:00 15.6 10 Sudoeste 28 Sudoeste 1 -- -- 96
2019-11-21 14:00:00 16 11 Sur 27 Sur 0.8 -- -- 96
2019-11-21 13:00:00 16.7 14 Sur 23 Sur 0 -- -- 88
2019-11-21 12:00:00 17 10 Sur 18 Sur 0.2 -- -- 92
2019-11-21 11:00:00 16 9 Sur 15 Sudeste 0.8 -- -- 99
2019-11-21 10:00:00 15.3 7 Sur 11 Sudeste 0 -- -- 100
2019-11-21 09:00:00 14.1 4 Sudeste 9 Sudeste 0 -- -- 99
2019-11-21 08:00:00 13.8 6 Sudeste 8 Sudeste 0 -- -- 99
2019-11-21 07:00:00 13.6 4 Sudeste 8 Sudeste 0 -- -- 98
2019-11-21 06:00:00 13.9 5 Sudeste 8 Sudeste 0 -- -- 98
2019-11-21 05:00:00 14.1 5 Sur 14 Sudoeste 0 -- -- 96
2019-11-21 04:00:00 14.5 6 Sudoeste 18 Sur 0.2 -- -- 94
2019-11-21 03:00:00 14.2 9 Sudoeste 18 Sudoeste 0 -- -- 98
2019-11-21 02:00:00 13.4 6 Sur 10 Sur 0 -- -- 98
2019-11-21 01:00:00 13.9 5 Sur 27 Sudoeste 1 -- -- 96
2019-11-21 00:00:00 13.8 10 Sur 22 Sur 0 -- -- 97
2019-11-20 23:00:00 13.6 5 Sudeste 8 Sudeste 0 -- -- 95
2019-11-20 22:00:00 13.5 5 Sudeste 12 Sur 0 -- -- 96
2019-11-20 21:00:00 11.9 4 Sur 7 Sudeste 0 -- -- 96
2019-11-20 20:00:00 11.7 5 Sudeste 7 Sudeste 0 -- -- 92
2019-11-20 19:00:00 12.9 4 Sudeste 6 Sur 0 -- -- 89
2019-11-20 18:00:00 15 7 Sur 22 Sur 0 -- -- 85
2019-11-20 17:00:00 15.8 14 Sur 33 Sur 0 -- -- 86
2019-11-20 16:00:00 14.9 21 Sur 42 Sur 0 -- -- 90
2019-11-20 15:00:00 15.3 23 Sur 47 Sudeste 0.2 -- -- 86
2019-11-20 14:00:00 15 26 Sur 50 Sur 0.6 -- -- 95
2019-11-20 13:00:00 15.9 26 Sudeste 45 Sudeste 0 -- -- 92
2019-11-20 12:00:00 15.2 19 Sudeste 33 Sudeste 0 -- -- 92
2019-11-20 11:00:00 12.5 13 Sudeste 22 Sudeste 0 -- -- 98
2019-11-20 10:00:00 11 8 Este 26 Este 0.4 -- -- 97
2019-11-20 09:00:00 10 18 Sudeste 30 Sudeste 0.2 -- -- 96
2019-11-20 08:00:00 9.4 4 Sudeste 12 Este 0.2 -- -- 95
2019-11-20 07:00:00 9 7 Este 11 Este 0.2 -- -- 95
2019-11-20 06:00:00 8 4 Sudeste 13 Este 0 -- -- 95
2019-11-20 05:00:00 7.3 7 Este 13 Sudeste 0 -- -- 96
2019-11-20 04:00:00 7.6 8 Este 11 Este 0 -- -- 98
2019-11-20 03:00:00 6.9 3 Este 7 Este 0 -- -- 97
2019-11-20 02:00:00 6.6 4 Este 6 Este 0 -- -- 97
2019-11-20 01:00:00 6.3 4 Este 6 Este 0 -- -- 95
2019-11-20 00:00:00 6.7 0 Calma 4 Este 0 -- -- 93
2019-11-19 23:00:00 7.7 3 Este 6 Este 0 -- -- 94
2019-11-19 22:00:00 8 2 Este 6 Este 0 -- -- 91
2019-11-19 21:00:00 8.9 0 Calma 4 Sudeste 0 -- -- 89
2019-11-19 20:00:00 10.2 3 Sudeste 4 Sudeste 0 -- -- 85
2019-11-19 19:00:00 12.4 3 Sudoeste 8 Sudoeste 0 -- -- 79
2019-11-19 18:00:00 14.2 5 Sudoeste 9 Sudoeste 0 -- -- 71
2019-11-19 17:00:00 14.8 5 Oeste 11 Sudoeste 0 -- -- 65
2019-11-19 16:00:00 14.5 7 Oeste 11 Sudoeste 0 -- -- 69
2019-11-19 15:00:00 15.4 9 Oeste 13 Sudoeste 0 -- -- 63
2019-11-19 14:00:00 16 7 Oeste 11 Oeste 0 -- -- 64
2019-11-19 13:00:00 15 3 Noroeste 7 Noroeste 0 -- -- 71
2019-11-19 12:00:00 12.8 3 Norte 5 Norte 0 -- -- 84
2019-11-19 11:00:00 11.7 0 Calma 7 Este 0 -- -- 89
2019-11-19 10:00:00 9.5 3 Este 6 Nordeste 0 -- -- 97
2019-11-19 09:00:00 6.3 3 Nordeste 4 Norte 0 -- -- 98
2019-11-19 08:00:00 5.5 3 Nordeste 5 Nordeste 0 -- -- 97
2019-11-19 07:00:00 5.8 2 Nordeste 4 Nordeste 0 -- -- 96
2019-11-19 06:00:00 6.4 4 Este 6 Este 0 -- -- 95
2019-11-19 05:00:00 6.5 4 Nordeste 5 Este 0 -- -- 94
2019-11-19 04:00:00 6.6 4 Nordeste 8 Este 0 -- -- 93
2019-11-19 03:00:00 7.1 3 Este 8 Nordeste 0 -- -- 92
2019-11-19 02:00:00 7.9 3 Sudeste 6 Sudeste 0 -- -- 89
2019-11-19 01:00:00 9.6 0 Calma 6 Norte 0 -- -- 81
2019-11-19 00:00:00 11.7 2 Nordeste 10 Norte 0 -- -- 76
2019-11-18 23:00:00 13.1 4 Noroeste 18 Noroeste 0 -- -- 77
2019-11-18 22:00:00 13.6 12 Noroeste 18 Noroeste 0 -- -- 78
2019-11-18 21:00:00 13.8 11 Oeste 23 Oeste 0 -- -- 80
2019-11-18 20:00:00 13.5 10 Oeste 16 Sudoeste 0 -- -- 84
2019-11-18 19:00:00 13.6 9 Oeste 18 Oeste 0 -- -- 81
2019-11-18 18:00:00 14.6 13 Oeste 21 Oeste 0 -- -- 78
2019-11-18 17:00:00 15.5 13 Oeste 22 Oeste 0 -- -- 72
2019-11-18 16:00:00 15.5 14 Oeste 26 Oeste 0 -- -- 70
2019-11-18 15:00:00 15.3 16 Oeste 28 Oeste 0 -- -- 69
2019-11-18 14:00:00 14.6 20 Oeste 30 Oeste 0 -- -- 71
2019-11-18 13:00:00 14.6 15 Oeste 27 Noroeste 0 -- -- 74
2019-11-18 12:00:00 13.4 19 Oeste 28 Oeste 0 -- -- 75
2019-11-18 11:00:00 12.8 19 Noroeste 31 Noroeste 0 -- -- 77
2019-11-18 10:00:00 11.9 18 Noroeste 32 Noroeste 0 -- -- 81
2019-11-18 09:00:00 10.9 17 Noroeste 33 Noroeste 0 -- -- 82
2019-11-18 08:00:00 10.9 18 Noroeste 34 Noroeste 0 -- -- 83
2019-11-18 07:00:00 11.2 21 Noroeste 44 Noroeste 0 -- -- 81
2019-11-18 06:00:00 11.6 25 Noroeste 43 Noroeste 0 -- -- 79
2019-11-18 05:00:00 12.3 27 Noroeste 47 Noroeste 0 -- -- 73
2019-11-18 04:00:00 13.6 28 Oeste 44 Noroeste 0 -- -- 75
2019-11-18 03:00:00 14.6 26 Noroeste 46 Oeste 0 -- -- 83
2019-11-18 02:00:00 15.9 30 Oeste 46 Sudoeste 0 -- -- 92
2019-11-18 01:00:00 16.2 23 Sudoeste 40 Sudoeste 0 -- -- 91
2019-11-18 00:00:00 16.1 24 Sudoeste 39 Sudoeste 0 -- -- 91
2019-11-17 23:00:00 15.9 20 Sudoeste 34 Sudoeste 0 -- -- 92
2019-11-17 22:00:00 15.8 20 Sudoeste 39 Sudoeste 0 -- -- 93
2019-11-17 21:00:00 15.7 20 Sudoeste 34 Sudoeste 0 -- -- 93
2019-11-17 20:00:00 15.9 21 Sudoeste 35 Sudoeste 0 -- -- 93
2019-11-17 19:00:00 16 19 Sudoeste 35 Sudoeste 0 -- -- 92
2019-11-17 18:00:00 16.5 19 Sudoeste 33 Sudoeste 0 -- -- 89
2019-11-17 17:00:00 17.1 17 Sudoeste 30 Sudoeste 0 -- -- 88
2019-11-17 16:00:00 17.4 18 Sudoeste 31 Sudoeste 0 -- -- 87
2019-11-17 15:00:00 17.2 19 Sudoeste 27 Sudoeste 0 -- -- 90
2019-11-17 14:00:00 16.5 17 Sudoeste 24 Oeste 0 -- -- 96
2019-11-17 13:00:00 14.8 11 Sur 24 Sur 2.2 -- -- 98
2019-11-17 12:00:00 14.2 14 Sudoeste 26 Sur 0 -- -- 95
2019-11-17 11:00:00 12.8 10 Sur 20 Sur 0.4 -- -- 94
2019-11-17 10:00:00 11.9 10 Sur 27 Sudoeste 0 -- -- 95
2019-11-17 09:00:00 10.3 7 Sur 12 Sur 0 -- -- 90
2019-11-17 08:00:00 9.1 3 Sudeste 7 Sudeste 0 -- -- 93
2019-11-17 07:00:00 8 2 Sudeste 4 Sudeste 0 -- -- 92
2019-11-17 06:00:00 7.8 3 Sudeste 4 Sudeste 0 -- -- 89
2019-11-17 05:00:00 8.5 2 Sur 7 Oeste 0 -- -- 84
2019-11-17 04:00:00 11.1 6 Noroeste 13 Oeste 0 -- -- 81
2019-11-17 03:00:00 11.4 5 Noroeste 15 Noroeste 0 -- -- 76
2019-11-17 02:00:00 11.7 8 Noroeste 17 Oeste 0 -- -- 75
2019-11-17 01:00:00 12.3 11 Oeste 17 Oeste 0 -- -- 73
2019-11-17 00:00:00 12.5 6 Noroeste 15 Oeste 0 -- -- 73
2019-11-16 23:00:00 12.6 8 Oeste 17 Oeste 0 -- -- 71
2019-11-16 22:00:00 12.8 11 Oeste 17 Oeste 0 -- -- 76
2019-11-16 21:00:00 13.1 13 Oeste 26 Oeste 0 -- -- 73
2019-11-16 20:00:00 12.9 15 Oeste 25 Oeste 0 -- -- 70
2019-11-16 19:00:00 12.7 13 Oeste 22 Oeste 0 -- -- 68
2019-11-16 18:00:00 13.7 10 Oeste 21 Oeste 0 -- -- 55
2019-11-16 17:00:00 14.1 14 Oeste 25 Oeste 0 -- -- 62
2019-11-16 16:00:00 13.7 15 Oeste 22 Oeste 0 -- -- 64
2019-11-16 15:00:00 13.8 14 Oeste 23 Oeste 0 -- -- 62
2019-11-16 14:00:00 13.2 15 Oeste 22 Oeste 0 -- -- 59
2019-11-16 13:00:00 12.7 10 Oeste 15 Oeste 0 -- -- 62
2019-11-16 12:00:00 11.9 8 Oeste 15 Noroeste 0 -- -- 63
2019-11-16 11:00:00 10.8 7 Norte 12 Norte 0 -- -- 69
2019-11-16 10:00:00 9.5 6 Norte 12 Norte 0 -- -- 83
2019-11-16 09:00:00 6.8 3 Norte 7 Nordeste 0 -- -- 88
2019-11-16 08:00:00 5.8 4 Nordeste 8 Nordeste 0 -- -- 84
2019-11-16 07:00:00 6.8 3 Nordeste 16 Norte 0 -- -- 78
2019-11-16 06:00:00 8.6 6 Noroeste 24 Noroeste 0 -- -- 77
2019-11-16 05:00:00 9.2 14 Noroeste 28 Noroeste 0 -- -- 78
2019-11-16 04:00:00 9.5 15 Noroeste 35 Noroeste 0 -- -- 75
2019-11-16 03:00:00 9.7 18 Noroeste 33 Noroeste 0 -- -- 74
2019-11-16 02:00:00 10 19 Noroeste 35 Noroeste 0 -- -- 70
2019-11-16 01:00:00 10.6 19 Noroeste 36 Noroeste 0 -- -- 64
2019-11-16 00:00:00 11.2 21 Noroeste 44 Noroeste 0 -- -- 62
2019-11-15 23:00:00 11.8 23 Noroeste 39 Noroeste 0 -- -- 61
2019-11-15 22:00:00 12.3 22 Noroeste 39 Noroeste 0 -- -- 59
2019-11-15 21:00:00 12.8 24 Noroeste 41 Oeste 0 -- -- 58
2019-11-15 20:00:00 13.1 19 Noroeste 35 Noroeste 0 -- -- 55
2019-11-15 19:00:00 13.3 23 Oeste 37 Oeste 0 -- -- 53
2019-11-15 18:00:00 13.7 23 Oeste 35 Noroeste 0 -- -- 54
2019-11-15 17:00:00 14.3 24 Oeste 39 Oeste 0 -- -- 54
2019-11-15 16:00:00 14.5 24 Oeste 39 Oeste 0 -- -- 54
2019-11-15 15:00:00 14.4 24 Oeste 44 Oeste 0 -- -- 53
2019-11-15 14:00:00 14 24 Oeste 39 Oeste 0 -- -- 55
2019-11-15 13:00:00 13.6 22 Oeste 35 Noroeste 0 -- -- 62
2019-11-15 12:00:00 12.7 23 Oeste 35 Oeste 0 -- -- 65
2019-11-15 11:00:00 12.6 22 Noroeste 35 Oeste 0 -- -- 64
2019-11-15 10:00:00 11.9 19 Noroeste 33 Oeste 0 -- -- 70
2019-11-15 09:00:00 11.7 22 Noroeste 40 Oeste 0 -- -- 69
2019-11-15 08:00:00 11.7 23 Noroeste 38 Oeste 0 -- -- 68
2019-11-15 07:00:00 12 24 Oeste 42 Oeste 0 -- -- 70
2019-11-15 06:00:00 12 24 Oeste 46 Oeste 0 -- -- 70
2019-11-15 05:00:00 12.3 22 Oeste 40 Oeste 0 -- -- 69
2019-11-15 04:00:00 12.3 26 Oeste 41 Oeste 0 -- -- 68
2019-11-15 03:00:00 12.6 25 Oeste 41 Noroeste 0 -- -- 71
2019-11-15 02:00:00 12.7 20 Oeste 39 Oeste 0 -- -- 76
2019-11-15 01:00:00 13.3 26 Noroeste 43 Noroeste 0 -- -- 75
2019-11-15 00:00:00 13.6 28 Oeste 44 Oeste 0 -- -- 73
2019-11-14 23:00:00 13.8 25 Oeste 41 Oeste 0 -- -- 76
2019-11-14 22:00:00 13.7 22 Oeste 41 Oeste 0 -- -- 74
2019-11-14 21:00:00 13.7 24 Oeste 39 Oeste 0 -- -- 74
2019-11-14 20:00:00 13.7 23 Oeste 44 Noroeste 0 -- -- 74
2019-11-14 19:00:00 13.9 28 Oeste 42 Oeste 0 -- -- 75
2019-11-14 18:00:00 14 21 Oeste 39 Oeste 0 -- -- 75
2019-11-14 17:00:00 14.9 24 Oeste 46 Noroeste 0 -- -- 68
2019-11-14 16:00:00 14.4 23 Oeste 37 Noroeste 0 -- -- 76
2019-11-14 15:00:00 14.1 22 Oeste 42 Oeste 0 -- -- 78
2019-11-14 14:00:00 13.8 31 Oeste 56 Noroeste 0.2 -- -- 87
2019-11-14 13:00:00 15.3 29 Oeste 55 Oeste 0 -- -- 81
2019-11-14 12:00:00 14.4 24 Oeste 46 Oeste 1.8 -- -- 94
2019-11-14 11:00:00 16.3 19 Sudoeste 34 Sudoeste 0 -- -- 81
2019-11-14 10:00:00 16.4 19 Sudoeste 31 Sudoeste 0 -- -- 80
2019-11-14 09:00:00 15.4 18 Sudoeste 29 Sudoeste 0 -- -- 81
2019-11-14 08:00:00 15 18 Sudoeste 28 Sudoeste 0 -- -- 75
2019-11-14 07:00:00 14.2 17 Oeste 28 Oeste 0 -- -- 78
2019-11-14 06:00:00 13.8 15 Oeste 27 Oeste 0 -- -- 84
2019-11-14 05:00:00 13.8 15 Noroeste 35 Noroeste 0 -- -- 83
2019-11-14 04:00:00 14.1 19 Noroeste 32 Noroeste 0 -- -- 83
2019-11-14 03:00:00 14.3 16 Noroeste 36 Oeste 0 -- -- 85
2019-11-14 02:00:00 14.8 21 Noroeste 38 Oeste 0 -- -- 89
2019-11-14 01:00:00 15.3 19 Oeste 29 Oeste 0 -- -- 92
2019-11-14 00:00:00 15.5 13 Oeste 23 Oeste 0 -- -- 92
2019-11-13 23:00:00 15.8 8 Oeste 18 Oeste 0 -- -- 93
2019-11-13 22:00:00 16.4 12 Sudoeste 20 Sudoeste 0 -- -- 93
2019-11-13 21:00:00 16.7 12 Sudoeste 22 Sudoeste 0 -- -- 91
2019-11-13 20:00:00 17.1 12 Sudoeste 24 Sudoeste 0 -- -- 91
2019-11-13 19:00:00 17.2 14 Sudoeste 26 Sudoeste 0 -- -- 93
2019-11-13 18:00:00 17.3 14 Sudoeste 31 Sudoeste 0 -- -- 93
2019-11-13 17:00:00 18.4 20 Sudoeste 36 Sudoeste 0 -- -- 89
2019-11-13 16:00:00 19.1 21 Sudoeste 34 Oeste 0 -- -- 85
2019-11-13 15:00:00 19 22 Sudoeste 32 Sudoeste 0 -- -- 85
2019-11-13 14:00:00 18.8 22 Oeste 33 Oeste 0 -- -- 86
2019-11-13 13:00:00 18.2 19 Sudoeste 30 Sudoeste 0 -- -- 85
2019-11-13 12:00:00 18 19 Sudoeste 31 Sudoeste 0 -- -- 84
2019-11-13 11:00:00 17.7 18 Sudoeste 32 Sudoeste 0 -- -- 80
2019-11-13 10:00:00 16.9 16 Sudoeste 29 Sudoeste 0 -- -- 90
2019-11-13 09:00:00 16.4 15 Sudoeste 24 Sudoeste 0 -- -- 92
2019-11-13 08:00:00 15.7 10 Sudoeste 19 Sudoeste 0 -- -- 91
2019-11-13 07:00:00 16 11 Sudoeste 20 Sudoeste 0 -- -- 91
2019-11-13 06:00:00 16 12 Sudoeste 21 Sudoeste 0 -- -- 93
2019-11-13 05:00:00 15.9 13 Sudoeste 22 Sudoeste 0 -- -- 91
2019-11-13 04:00:00 16 13 Oeste 23 Oeste 0 -- -- 88
2019-11-13 03:00:00 15.8 10 Oeste 17 Sudoeste 0 -- -- 88
2019-11-13 02:00:00 15.4 9 Oeste 20 Oeste 0 -- -- 86
2019-11-13 01:00:00 15 12 Oeste 24 Oeste 0 -- -- 85
2019-11-13 00:00:00 14.8 11 Oeste 23 Noroeste 0 -- -- 84
2019-11-12 23:00:00 15.3 15 Oeste 31 Oeste 0 -- -- 82
2019-11-12 22:00:00 15.6 19 Oeste 28 Noroeste 0 -- -- 81
2019-11-12 21:00:00 15.9 14 Oeste 27 Oeste 0 -- -- 80
2019-11-12 20:00:00 15.3 8 Oeste 23 Oeste 0 -- -- 85
2019-11-12 19:00:00 15.5 15 Sudoeste 27 Sudoeste 0 -- -- 80
2019-11-12 18:00:00 16.4 16 Sudoeste 27 Sudoeste 0 -- -- 77
2019-11-12 17:00:00 17.2 18 Oeste 30 Oeste 0 -- -- 69
2019-11-12 16:00:00 17.2 20 Oeste 37 Oeste 0 -- -- 69
2019-11-12 15:00:00 16.9 22 Oeste 37 Oeste 0 -- -- 71
2019-11-12 14:00:00 16.9 18 Noroeste 29 Oeste 0 -- -- 75
2019-11-12 13:00:00 15.9 17 Oeste 25 Oeste 0 -- -- 79
2019-11-12 12:00:00 15 15 Noroeste 25 Oeste 0 -- -- 82
2019-11-12 11:00:00 14.2 10 Noroeste 24 Noroeste 0 -- -- 84
2019-11-12 10:00:00 13.6 14 Noroeste 24 Noroeste 0 -- -- 88
2019-11-12 09:00:00 12.7 8 Noroeste 23 Noroeste 0 -- -- 92
2019-11-12 08:00:00 12.5 9 Noroeste 25 Noroeste 0 -- -- 92
2019-11-12 07:00:00 12.8 15 Noroeste 28 Noroeste 0 -- -- 91
2019-11-12 06:00:00 13.2 14 Noroeste 22 Noroeste 0 -- -- 91
2019-11-12 05:00:00 13.5 5 Noroeste 17 Noroeste 0 -- -- 88
2019-11-12 04:00:00 13.8 7 Noroeste 27 Noroeste 0 -- -- 88
2019-11-12 03:00:00 14.2 15 Noroeste 30 Noroeste 0 -- -- 86
2019-11-12 02:00:00 14.4 16 Noroeste 28 Noroeste 0 -- -- 85
2019-11-12 01:00:00 15 21 Noroeste 33 Noroeste 0 -- -- 85
2019-11-12 00:00:00 15.6 12 Oeste 23 Oeste 0 -- -- 86
2019-11-11 23:00:00 16.3 14 Oeste 24 Oeste 0 -- -- 88
2019-11-11 22:00:00 16.3 9 Oeste 18 Oeste 0 -- -- 95
2019-11-11 21:00:00 16.4 12 Oeste 18 Oeste 0 -- -- 94
2019-11-11 20:00:00 16.3 9 Oeste 17 Noroeste 0 -- -- 94
2019-11-11 19:00:00 16.6 11 Oeste 22 Sudoeste 0 -- -- 93
2019-11-11 18:00:00 17.3 15 Sudoeste 26 Oeste 0 -- -- 93
2019-11-11 17:00:00 17.5 16 Sudoeste 25 Sudoeste 0 -- -- 89
2019-11-11 16:00:00 17.4 13 Sudoeste 22 Oeste 0 -- -- 89
2019-11-11 15:00:00 17.6 14 Oeste 23 Oeste 0 -- -- 90
2019-11-11 14:00:00 16.9 12 Oeste 18 Sudoeste 0 -- -- 93
2019-11-11 13:00:00 16.6 12 Oeste 17 Sudoeste 0 -- -- 92
2019-11-11 12:00:00 16.5 5 Oeste 10 Oeste 0 -- -- 92
2019-11-11 11:00:00 15.1 3 Sur 6 Sudeste 0 -- -- 96
2019-11-11 10:00:00 14.5 4 Sudeste 6 Sudeste 0 -- -- 98
2019-11-11 09:00:00 13.8 3 Este 4 Este 0 -- -- 98
2019-11-11 08:00:00 13.5 0 Calma 5 Norte 0 -- -- 98
2019-11-11 07:00:00 13.5 2 Norte 4 Norte 0 -- -- 98
2019-11-11 06:00:00 13.3 3 Noroeste 11 Noroeste 0.2 -- -- 98
2019-11-11 05:00:00 13.3 5 Noroeste 20 Oeste 0.2 -- -- 97
2019-11-11 04:00:00 13.4 15 Oeste 31 Oeste 0 -- -- 95
2019-11-11 03:00:00 14.6 19 Oeste 32 Noroeste 0 -- -- 87
2019-11-11 02:00:00 14.8 22 Noroeste 37 Oeste 0 -- -- 83
2019-11-11 01:00:00 14.9 22 Noroeste 39 Noroeste 0 -- -- 82
2019-11-11 00:00:00 14.7 24 Noroeste 41 Noroeste 0 -- -- 81
2019-11-10 23:00:00 14.9 24 Noroeste 43 Noroeste 0 -- -- 79
2019-11-10 22:00:00 15.1 17 Noroeste 37 Noroeste 0 -- -- 73
2019-11-10 21:00:00 16.1 20 Noroeste 33 Noroeste 0 -- -- 68
2019-11-10 20:00:00 16.4 21 Noroeste 36 Noroeste 0 -- -- 65
2019-11-10 19:00:00 16.5 18 Noroeste 39 Oeste 0 -- -- 67
2019-11-10 18:00:00 16.9 22 Noroeste 36 Noroeste 0 -- -- 69
2019-11-10 17:00:00 17.4 23 Noroeste 35 Noroeste 0 -- -- 63
2019-11-10 16:00:00 17.3 17 Oeste 36 Oeste 0 -- -- 62
2019-11-10 15:00:00 17.7 27 Noroeste 40 Oeste 0 -- -- 59
2019-11-10 14:00:00 17.5 28 Noroeste 46 Oeste 0 -- -- 63
2019-11-10 13:00:00 17.6 20 Noroeste 33 Noroeste 0 -- -- 61
2019-11-10 12:00:00 16.4 18 Noroeste 29 Oeste 0 -- -- 69
2019-11-10 11:00:00 15.4 20 Noroeste 34 Noroeste 0 -- -- 73
2019-11-10 10:00:00 14.6 18 Noroeste 34 Noroeste 0 -- -- 76
2019-11-10 09:00:00 13.9 22 Noroeste 35 Noroeste 0 -- -- 77
2019-11-10 08:00:00 13.7 19 Noroeste 32 Noroeste 0 -- -- 77
2019-11-10 07:00:00 13.8 14 Oeste 34 Noroeste 0 -- -- 80
2019-11-10 06:00:00 13.9 17 Noroeste 33 Noroeste 0 -- -- 78
2019-11-10 05:00:00 13.9 19 Noroeste 34 Noroeste 0 -- -- 77
2019-11-10 04:00:00 14.5 20 Noroeste 37 Noroeste 0 -- -- 76
2019-11-10 03:00:00 15 23 Noroeste 39 Noroeste 0 -- -- 73
2019-11-10 02:00:00 15.8 23 Oeste 36 Oeste 0 -- -- 78
2019-11-10 01:00:00 16.5 22 Oeste 34 Oeste 0 -- -- 96
2019-11-10 00:00:00 16.9 21 Oeste 32 Oeste 0 -- -- 88
2019-11-09 23:00:00 16.8 19 Oeste 30 Oeste 0 -- -- 85
2019-11-09 22:00:00 16.4 13 Sudoeste 26 Sudoeste 0 -- -- 89
2019-11-09 21:00:00 16.4 18 Oeste 27 Sudoeste 0 -- -- 84
2019-11-09 20:00:00 15.8 19 Oeste 33 Oeste 0 -- -- 79
2019-11-09 19:00:00 15.3 17 Oeste 28 Oeste 0 -- -- 78
2019-11-09 18:00:00 15.5 15 Oeste 26 Oeste 0 -- -- 73
2019-11-09 17:00:00 16.1 11 Oeste 18 Oeste 0 -- -- 69
2019-11-09 16:00:00 16.4 12 Oeste 19 Oeste 0 -- -- 64
2019-11-09 15:00:00 16 11 Oeste 18 Oeste 0 -- -- 60
2019-11-09 14:00:00 15.6 11 Oeste 18 Oeste 0 -- -- 63
2019-11-09 13:00:00 15.1 9 Oeste 16 Oeste 0 -- -- 67
2019-11-09 12:00:00 15.4 6 Noroeste 10 Noroeste 0 -- -- 57
2019-11-09 11:00:00 14.2 4 Nordeste 11 Nordeste 0 -- -- 61
2019-11-09 10:00:00 11.5 6 Nordeste 12 Norte 0 -- -- 74
2019-11-09 09:00:00 9.6 5 Norte 10 Norte 0 -- -- 81
2019-11-09 08:00:00 8.6 4 Norte 10 Norte 0 -- -- 84
2019-11-09 07:00:00 9.2 5 Norte 12 Norte 0 -- -- 80
2019-11-09 06:00:00 9.3 4 Norte 12 Norte 0 -- -- 79
2019-11-09 05:00:00 9.6 4 Nordeste 10 Nordeste 0 -- -- 81
2019-11-09 04:00:00 10.6 4 Nordeste 15 Norte 0 -- -- 78
2019-11-09 03:00:00 11.3 6 Norte 14 Noroeste 0 -- -- 79
2019-11-09 02:00:00 11.3 3 Norte 14 Norte 0 -- -- 70
2019-11-09 01:00:00 13.3 8 Norte 22 Noroeste 0 -- -- 65
2019-11-09 00:00:00 14.3 9 Noroeste 26 Noroeste 0 -- -- 63